Time;durP1;ratioP1;P1;durP2;ratioP2;P2;SDS_P1;SDS_P2;PMS_P1;PMS_P2;Temp;Humidity;BMP_temperature;BMP_pressure;BME280_temperature;BME280_humidity;BME280_pressure;Samples;Min_cycle;Max_cycle;Signal;HPM_P1;HPM_P2
2021/06/08 00:02:16;;;;;;;9.65;7.65;;;;;;;17.60;71.18;96548.19;5042978;28;20053;-67
2021/06/08 00:04:43;;;;;;;13.98;7.35;;;;;;;17.61;71.40;96554.47;5031204;28;20046;-68
2021/06/08 00:07:09;;;;;;;10.90;7.88;;;;;;;17.59;71.03;96546.59;5030934;28;20041;-68
2021/06/08 00:09:35;;;;;;;12.63;7.78;;;;;;;17.55;71.37;96561.44;5031328;28;20538;-68
2021/06/08 00:12:02;;;;;;;11.75;7.93;;;;;;;17.51;71.81;96555.03;5030148;28;20130;-68
2021/06/08 00:14:28;;;;;;;11.23;8.43;;;;;;;17.45;71.88;96552.56;5031235;28;20045;-68
2021/06/08 00:16:53;;;;;;;9.57;7.10;;;;;;;17.42;72.08;96552.47;5030917;28;20129;-68
2021/06/08 00:19:20;;;;;;;11.82;7.53;;;;;;;17.41;72.19;96551.66;5030475;28;20046;-68
2021/06/08 00:21:47;;;;;;;9.60;7.53;;;;;;;17.40;72.48;96554.78;5031005;28;20069;-68
2021/06/08 00:24:13;;;;;;;9.13;6.93;;;;;;;17.39;72.62;96548.47;5030704;28;20420;-68
2021/06/08 00:26:39;;;;;;;9.70;7.13;;;;;;;17.38;72.82;96551.56;5030996;28;20045;-68
2021/06/08 00:29:05;;;;;;;9.50;6.55;;;;;;;17.35;73.00;96553.09;5030579;28;20049;-68
2021/06/08 00:31:31;;;;;;;10.60;6.43;;;;;;;17.35;72.96;96547.59;5042801;28;20041;-68
2021/06/08 00:33:57;;;;;;;9.07;6.82;;;;;;;17.35;72.40;96547.59;5030983;28;20255;-68
2021/06/08 00:36:23;;;;;;;9.43;6.85;;;;;;;17.32;72.34;96542.78;5030550;28;20562;-67
2021/06/08 00:38:50;;;;;;;8.82;6.13;;;;;;;17.30;72.39;96549.81;5030950;28;20061;-68
2021/06/08 00:41:16;;;;;;;11.57;7.15;;;;;;;17.27;72.58;96540.31;5030286;28;20053;-68
2021/06/08 00:43:42;;;;;;;8.25;6.45;;;;;;;17.26;72.95;96549.72;5030969;28;20057;-68
2021/06/08 00:46:08;;;;;;;7.53;6.30;;;;;;;17.26;73.29;96544.22;5030371;28;20045;-68
2021/06/08 00:48:34;;;;;;;8.63;6.65;;;;;;;17.25;73.43;96542.63;5030701;28;20045;-67
2021/06/08 00:51:00;;;;;;;9.00;6.97;;;;;;;17.24;73.55;96546.53;5030637;28;20041;-68
2021/06/08 00:53:26;;;;;;;10.23;7.30;;;;;;;17.24;73.27;96540.25;5030419;28;20048;-68
2021/06/08 00:55:54;;;;;;;9.45;6.50;;;;;;;17.20;73.50;96540.16;5030799;28;20413;-67
2021/06/08 00:58:20;;;;;;;11.63;7.55;;;;;;;17.14;73.37;96536.06;5030095;28;20049;-68
2021/06/08 01:00:46;;;;;;;11.07;7.00;;;;;;;17.11;73.52;96526.56;5036956;28;20052;-68
2021/06/08 01:03:12;;;;;;;9.02;7.00;;;;;;;17.13;73.12;96528.97;5036014;28;20045;-68
2021/06/08 01:05:38;;;;;;;11.65;7.18;;;;;;;17.11;73.25;96526.56;5030587;28;20045;-68
2021/06/08 01:08:05;;;;;;;11.27;7.30;;;;;;;17.09;73.59;96531.63;5030043;28;20489;-68
2021/06/08 01:10:31;;;;;;;9.90;6.35;;;;;;;17.08;73.61;96526.50;5030681;28;20072;-68
2021/06/08 01:12:58;;;;;;;11.25;7.35;;;;;;;17.08;73.46;96526.50;5030297;28;20390;-68
2021/06/08 01:15:24;;;;;;;7.93;6.10;;;;;;;17.05;73.71;96527.19;5030201;28;20046;-68
2021/06/08 01:17:51;;;;;;;10.07;7.53;;;;;;;17.00;73.75;96520.00;5030713;28;20049;-68
2021/06/08 01:20:18;;;;;;;11.43;7.43;;;;;;;16.98;73.71;96516.81;5030024;28;20550;-68
2021/06/08 01:22:46;;;;;;;8.70;7.03;;;;;;;16.97;73.77;96519.94;5030540;28;20412;-68
2021/06/08 01:25:12;;;;;;;11.23;7.25;;;;;;;16.95;74.01;96518.31;5033630;28;20049;-68
2021/06/08 01:27:40;;;;;;;14.05;7.57;;;;;;;16.93;74.14;96523.38;5034237;28;20049;-68
2021/06/08 01:30:07;;;;;;;12.98;8.23;;;;;;;16.91;74.19;96517.44;5034529;28;20049;-68
2021/06/08 01:32:34;;;;;;;11.20;7.50;;;;;;;16.91;74.25;96520.19;5045455;28;20041;-67
2021/06/08 01:35:00;;;;;;;9.18;7.20;;;;;;;16.91;74.39;96520.19;5034078;28;20048;-68
2021/06/08 01:37:27;;;;;;;11.50;8.15;;;;;;;16.93;73.61;96537.13;5033899;28;20069;-68
2021/06/08 01:39:55;;;;;;;13.45;7.80;;;;;;;16.88;73.87;96526.41;5034097;28;20045;-68
2021/06/08 01:42:21;;;;;;;12.13;7.78;;;;;;;16.87;73.82;96516.56;5033467;28;20053;-68
2021/06/08 01:44:47;;;;;;;9.73;6.70;;;;;;;16.85;74.07;96518.84;5034177;28;20054;-68
2021/06/08 01:47:14;;;;;;;8.10;6.65;;;;;;;16.80;74.35;96521.84;5033592;28;20053;-68
2021/06/08 01:49:41;;;;;;;9.63;7.72;;;;;;;16.80;74.61;96526.56;5034080;28;20041;-68
2021/06/08 01:52:16;;;;;;;11.48;8.05;;;;;;;16.79;74.43;96525.75;5033101;28;20045;-68
2021/06/08 01:54:49;;;;;;;12.95;7.28;;;;;;;16.75;74.34;96519.38;5033777;28;20049;-67
2021/06/08 01:57:20;;;;;;;12.13;8.13;;;;;;;16.69;74.44;96515.25;5033360;28;20046;-68
2021/06/08 01:59:53;;;;;;;12.35;7.90;;;;;;;16.65;74.87;96514.34;5033825;28;20045;-68
2021/06/08 02:02:22;;;;;;;;;;;;;;;16.61;74.83;96524.50;5043798;28;20045;-68
2021/06/08 02:04:53;;;;;;;11.27;8.48;;;;;;;16.58;74.93;96530.69;5033701;28;19937;-68
2021/06/08 02:07:32;;;;;;;12.23;7.78;;;;;;;16.62;74.96;96520.59;5033230;28;20068;-68
2021/06/08 02:10:01;;;;;;;13.25;8.18;;;;;;;16.59;74.88;96521.28;5033600;28;20056;-68
2021/06/08 02:12:29;;;;;;;9.63;7.38;;;;;;;16.58;75.06;96522.44;5033343;28;20041;-68
2021/06/08 02:15:03;;;;;;;11.90;8.45;;;;;;;16.56;75.36;96527.50;5033456;28;20049;-67
2021/06/08 02:17:38;;;;;;;10.43;8.05;;;;;;;16.52;75.32;96529.34;5033176;28;20049;-68
2021/06/08 02:20:08;;;;;;;11.68;7.95;;;;;;;16.49;75.46;96530.03;5033078;28;20048;-68
2021/06/08 02:22:38;;;;;;;10.93;8.38;;;;;;;16.50;75.21;96534.41;5033393;28;20097;-68
2021/06/08 02:25:07;;;;;;;13.60;8.13;;;;;;;16.47;75.49;96524.91;5032916;28;20045;-68
2021/06/08 02:27:35;;;;;;;12.93;8.48;;;;;;;16.47;75.58;96529.59;5033296;28;20049;-67
2021/06/08 02:30:01;;;;;;;14.57;8.52;;;;;;;16.47;75.07;96524.09;5030435;28;20091;-68
2021/06/08 02:32:30;;;;;;;11.00;8.35;;;;;;;16.44;74.92;96537.41;5044183;28;20492;-68
2021/06/08 02:34:57;;;;;;;11.50;8.20;;;;;;;16.41;75.06;96538.09;5032692;28;20037;-67
2021/06/08 02:37:25;;;;;;;10.23;7.55;;;;;;;16.35;74.93;96534.00;5032452;28;20490;-68
2021/06/08 02:39:51;;;;;;;12.13;9.13;;;;;;;16.27;75.36;96532.19;5033038;28;20052;-67
2021/06/08 02:42:19;;;;;;;11.40;8.77;;;;;;;16.20;75.64;96537.50;5032482;28;20458;-67
2021/06/08 02:44:48;;;;;;;13.32;8.13;;;;;;;16.15;75.82;96535.00;5032894;28;20041;-67
2021/06/08 02:47:16;;;;;;;11.68;7.72;;;;;;;16.09;76.13;96541.91;5032360;28;20049;-67
2021/06/08 02:49:44;;;;;;;11.77;8.10;;;;;;;16.04;76.42;96544.91;5032883;28;20045;-68
2021/06/08 02:52:11;;;;;;;13.98;9.25;;;;;;;15.94;76.61;96546.19;5031916;28;20062;-68
2021/06/08 02:54:38;;;;;;;13.20;8.45;;;;;;;15.90;76.86;96546.06;5032922;28;20068;-67
2021/06/08 02:57:05;;;;;;;12.35;8.57;;;;;;;15.89;77.19;96543.69;5031812;28;20519;-68
2021/06/08 02:59:34;;;;;;;13.68;9.95;;;;;;;15.88;77.60;96548.38;5034918;28;20099;-67
2021/06/08 03:02:04;;;;;;;12.30;9.25;;;;;;;15.89;77.89;96549.97;5043982;28;20038;-67
2021/06/08 03:04:43;;;;;;;14.48;9.52;;;;;;;15.89;78.20;96549.97;5032397;28;20045;-68
2021/06/08 03:07:11;;;;;;;11.82;9.30;;;;;;;15.89;78.13;96552.72;5031905;28;20054;-68
2021/06/08 03:09:39;;;;;;;9.88;8.55;;;;;;;15.95;77.82;96558.75;5032382;28;20440;-67
2021/06/08 03:12:09;;;;;;;11.98;8.23;;;;;;;15.98;77.51;96563.56;5031821;28;20078;-67
2021/06/08 03:14:36;;;;;;;13.93;9.20;;;;;;;15.99;77.16;96567.91;5032536;28;20048;-67
2021/06/08 03:17:05;;;;;;;13.43;9.35;;;;;;;15.99;76.76;96569.88;5031747;28;20072;-69
2021/06/08 03:19:34;;;;;;;15.73;8.90;;;;;;;15.97;77.01;96569.38;5032402;28;20049;-68
2021/06/08 03:22:03;;;;;;;13.20;10.05;;;;;;;15.96;77.36;96567.81;5032172;28;20050;-68
2021/06/08 03:24:32;;;;;;;13.75;8.77;;;;;;;15.98;76.47;96568.28;5031898;28;20507;-68
2021/06/08 03:27:00;;;;;;;11.88;8.60;;;;;;;15.95;76.66;96575.25;5032039;28;20053;-67
2021/06/08 03:29:28;;;;;;;12.38;8.35;;;;;;;15.93;77.07;96572.06;5033775;28;20099;-67
2021/06/08 03:31:54;;;;;;;14.02;8.90;;;;;;;15.95;76.79;96575.25;5043331;28;20049;-67
2021/06/08 03:34:22;;;;;;;15.73;9.23;;;;;;;15.96;76.63;96578.78;5031523;28;20046;-68
2021/06/08 03:36:50;;;;;;;11.75;8.40;;;;;;;15.93;76.73;96576.75;5031866;28;20049;-67
2021/06/08 03:39:18;;;;;;;14.85;9.63;;;;;;;15.84;76.75;96571.38;5031458;28;20095;-68
2021/06/08 03:41:46;;;;;;;13.57;10.00;;;;;;;15.80;77.10;96574.00;5031850;28;20095;-67
2021/06/08 03:44:13;;;;;;;12.02;9.30;;;;;;;15.77;77.65;96585.69;5031021;28;20045;-67
2021/06/08 03:46:39;;;;;;;15.52;9.93;;;;;;;15.68;77.68;96578.72;5030769;28;20045;-67
2021/06/08 03:49:06;;;;;;;12.55;9.40;;;;;;;15.60;78.10;96581.22;5031305;28;20053;-67
2021/06/08 03:51:34;;;;;;;12.63;9.50;;;;;;;15.55;78.58;96578.69;5031179;28;20060;-68
2021/06/08 03:54:00;;;;;;;11.75;9.38;;;;;;;15.55;78.80;96578.69;5031747;28;20037;-67
2021/06/08 03:56:28;;;;;;;12.90;9.98;;;;;;;15.57;78.84;96586.59;5031397;28;20068;-68
2021/06/08 03:58:55;;;;;;;15.20;10.48;;;;;;;15.53;79.06;96585.69;5033584;28;20096;-67
2021/06/08 04:01:23;;;;;;;14.65;10.05;;;;;;;15.48;79.34;96583.19;5041401;28;20069;-67
2021/06/08 04:03:50;;;;;;;19.00;10.90;;;;;;;15.48;79.51;96583.19;5031997;28;20049;-68
2021/06/08 04:06:16;;;;;;;15.27;10.13;;;;;;;15.43;79.61;96586.94;5030880;28;20052;-67
2021/06/08 04:08:44;;;;;;;13.30;9.85;;;;;;;15.42;79.98;96587.31;5031444;28;20049;-68
2021/06/08 04:11:10;;;;;;;15.15;11.32;;;;;;;15.38;80.00;96592.66;5030776;28;20041;-68
2021/06/08 04:13:39;;;;;;;14.60;10.18;;;;;;;15.35;80.26;96593.38;5031300;28;20045;-67
2021/06/08 04:16:05;;;;;;;14.10;10.48;;;;;;;15.38;80.45;96590.72;5030663;28;20075;-67
2021/06/08 04:18:32;;;;;;;14.32;10.52;;;;;;;15.38;80.46;96589.91;5031541;28;20076;-67
2021/06/08 04:20:59;;;;;;;12.77;10.25;;;;;;;15.42;80.65;96592.78;5031064;28;20045;-67
2021/06/08 04:23:26;;;;;;;13.55;10.05;;;;;;;15.46;80.38;96597.25;5030656;28;20044;-67
2021/06/08 04:25:54;;;;;;;15.55;10.13;;;;;;;15.53;80.27;96602.97;5031023;28;20107;-68
2021/06/08 04:28:20;;;;;;;13.63;10.13;;;;;;;15.53;80.17;96605.69;5032765;28;20053;-67
2021/06/08 04:30:48;;;;;;;16.33;9.52;;;;;;;15.62;80.43;96605.59;5036717;28;20514;-68
2021/06/08 04:33:14;;;;;;;15.60;9.60;;;;;;;15.67;79.83;96608.13;5036006;28;20054;-67
2021/06/08 04:35:42;;;;;;;18.15;10.82;;;;;;;15.69;79.93;96611.31;5030795;28;20049;-68
2021/06/08 04:38:08;;;;;;;12.27;10.57;;;;;;;15.77;80.31;96606.88;5030475;28;20045;-68
2021/06/08 04:40:36;;;;;;;15.10;11.20;;;;;;;15.85;80.43;96603.97;5031094;28;20063;-68
2021/06/08 04:43:03;;;;;;;17.35;10.55;;;;;;;15.93;80.17;96604.22;5030306;28;20393;-67
2021/06/08 04:45:29;;;;;;;14.30;10.65;;;;;;;16.05;79.77;96606.91;5030801;28;20049;-67
2021/06/08 04:47:55;;;;;;;13.45;10.93;;;;;;;16.06;79.20;96603.03;5030751;28;20528;-69
2021/06/08 04:50:21;;;;;;;13.57;11.13;;;;;;;16.11;79.15;96608.28;5030253;28;20060;-67
2021/06/08 04:52:55;;;;;;;16.45;11.65;;;;;;;16.17;78.83;96604.94;5030520;28;20576;-67
2021/06/08 04:55:23;;;;;;;14.02;11.23;;;;;;;16.21;78.64;96609.75;5030346;28;20063;-67
2021/06/08 04:57:50;;;;;;;16.30;12.10;;;;;;;16.23;78.57;96613.72;5032374;28;20045;-68
2021/06/08 05:00:19;;;;;;;16.08;11.70;;;;;;;16.24;78.42;96609.06;5037941;28;20076;-67
2021/06/08 05:02:48;;;;;;;15.32;11.98;;;;;;;16.29;78.79;96612.34;5044362;28;20045;-67
2021/06/08 05:05:18;;;;;;;16.90;11.88;;;;;;;16.23;78.00;96619.22;5034203;28;20045;-68
2021/06/08 05:07:48;;;;;;;14.88;11.55;;;;;;;16.28;78.51;96618.97;5034785;28;20049;-67
2021/06/08 05:10:16;;;;;;;18.50;12.00;;;;;;;16.25;77.86;96621.63;5033889;28;20049;-68
2021/06/08 05:12:44;;;;;;;18.40;12.50;;;;;;;16.22;78.57;96620.38;5034373;28;20037;-68
2021/06/08 05:15:11;;;;;;;15.65;11.82;;;;;;;16.25;78.62;96627.13;5034222;28;20057;-68
2021/06/08 05:17:39;;;;;;;17.40;12.68;;;;;;;16.18;78.75;96624.97;5034451;28;20041;-68
2021/06/08 05:20:08;;;;;;;22.58;12.65;;;;;;;16.19;79.26;96615.59;5033922;28;20045;-68
2021/06/08 05:22:35;;;;;;;15.85;12.85;;;;;;;16.23;79.53;96616.47;5034436;28;20049;-67
2021/06/08 05:25:01;;;;;;;17.05;13.27;;;;;;;16.27;79.82;96614.63;5034333;28;20404;-68
2021/06/08 05:27:29;;;;;;;16.67;12.57;;;;;;;16.30;79.23;96619.44;5034050;28;20412;-67
2021/06/08 05:29:56;;;;;;;17.95;12.95;;;;;;;16.27;79.42;96619.34;5034074;28;20038;-67
2021/06/08 05:32:23;;;;;;;18.75;13.13;;;;;;;16.27;79.60;96620.13;5045080;28;20042;-67
2021/06/08 05:34:50;;;;;;;18.45;12.52;;;;;;;16.34;79.54;96622.28;5034141;28;20064;-68
2021/06/08 05:37:18;;;;;;;20.00;13.43;;;;;;;16.34;79.27;96619.53;5033599;28;20041;-67
2021/06/08 05:39:45;;;;;;;16.92;12.80;;;;;;;16.34;79.75;96625.84;5034013;28;20531;-67
2021/06/08 05:42:14;;;;;;;16.35;12.95;;;;;;;16.38;79.55;96632.22;5033690;28;20447;-67
2021/06/08 05:44:40;;;;;;;17.02;13.73;;;;;;;16.48;79.32;96633.69;5034165;28;20052;-67
2021/06/08 05:47:07;;;;;;;18.65;13.48;;;;;;;16.56;78.82;96631.97;5033548;28;20045;-68
2021/06/08 05:49:36;;;;;;;21.33;13.57;;;;;;;16.59;79.28;96631.25;5034010;28;20041;-68
2021/06/08 05:52:05;;;;;;;19.60;14.27;;;;;;;16.64;78.95;96636.50;5033174;28;20104;-68
2021/06/08 05:54:32;;;;;;;17.58;13.35;;;;;;;16.70;79.33;96626.84;5033678;28;20056;-67
2021/06/08 05:56:59;;;;;;;18.85;14.73;;;;;;;16.80;80.03;96631.84;5033868;28;20057;-73
2021/06/08 05:59:26;;;;;;;20.48;13.57;;;;;;;16.89;79.78;96635.25;5034448;28;20055;-73
2021/06/08 06:01:52;;;;;;;18.30;13.18;;;;;;;17.02;79.66;96633.25;5033687;28;20056;-73
2021/06/08 06:04:20;;;;;;;18.05;14.38;;;;;;;17.14;78.59;96629.63;5033289;28;20069;-73
2021/06/08 06:06:47;;;;;;;17.30;13.70;;;;;;;17.24;78.54;96639.31;5033867;28;20049;-73
2021/06/08 06:09:16;;;;;;;21.33;13.68;;;;;;;17.21;77.89;96629.78;5032358;28;20046;-73
2021/06/08 06:11:46;;;;;;;17.98;13.73;;;;;;;17.31;78.16;96634.78;5033593;28;20045;-73
2021/06/08 06:14:14;;;;;;;21.45;14.95;;;;;;;17.42;77.88;96633.09;5033308;28;20053;-73
2021/06/08 06:16:45;;;;;;;19.63;14.90;;;;;;;17.51;78.01;96638.44;5033681;28;20042;-73
2021/06/08 06:19:12;;;;;;;17.50;15.02;;;;;;;17.55;77.42;96635.78;5033157;28;20104;-72
2021/06/08 06:21:39;;;;;;;19.95;14.93;;;;;;;17.64;77.10;96641.88;5033729;28;20052;-73
2021/06/08 06:24:09;;;;;;;18.45;15.07;;;;;;;17.69;76.47;96633.34;5032958;28;20412;-73
2021/06/08 06:26:37;;;;;;;19.83;15.20;;;;;;;17.75;75.93;96631.97;5033474;28;20038;-72
2021/06/08 06:29:05;;;;;;;19.58;15.02;;;;;;;17.81;75.97;96633.28;5035139;28;20049;-71
2021/06/08 06:31:31;;;;;;;19.70;15.38;;;;;;;17.89;76.11;96632.28;5044564;28;20556;-69
2021/06/08 06:33:58;;;;;;;18.10;15.07;;;;;;;17.97;75.71;96636.00;5033247;28;20053;-70
2021/06/08 06:36:26;;;;;;;19.05;15.63;;;;;;;18.04;76.36;96643.63;5032843;28;20049;-70
2021/06/08 06:38:55;;;;;;;21.48;15.90;;;;;;;18.12;75.27;96639.88;5025140;28;20045;-71
2021/06/08 06:41:22;;;;;;;22.67;15.30;;;;;;;18.22;76.30;96639.31;5032346;28;20049;-70
2021/06/08 06:43:53;;;;;;;21.42;15.35;;;;;;;18.28;75.19;96643.38;5032914;28;20606;-71
2021/06/08 06:46:20;;;;;;;20.02;15.38;;;;;;;18.35;75.80;96642.72;5032022;28;20049;-70
2021/06/08 06:48:47;;;;;;;21.17;15.68;;;;;;;18.40;74.08;96650.72;5052112;28;20059;-71
2021/06/08 06:51:15;;;;;;;21.48;16.95;;;;;;;18.45;74.39;96648.47;5052208;28;20048;-70
2021/06/08 06:53:41;;;;;;;20.58;16.08;;;;;;;18.51;74.00;96637.94;5052225;28;20037;-70
2021/06/08 06:56:07;;;;;;;23.02;16.70;;;;;;;18.57;73.73;96641.22;5052072;28;20052;-70
2021/06/08 06:58:34;;;;;;;20.52;16.50;;;;;;;18.66;74.21;96641.81;5047938;28;20471;-69
2021/06/08 07:01:02;;;;;;;23.02;16.73;;;;;;;18.75;73.90;96639.66;5033959;28;20121;-69
2021/06/08 07:03:31;;;;;;;21.83;16.40;;;;;;;18.82;74.96;96639.78;5032144;28;20095;-69
2021/06/08 07:05:58;;;;;;;21.42;16.20;;;;;;;18.81;72.77;96648.44;5032244;28;20041;-70
2021/06/08 07:08:26;;;;;;;26.13;17.60;;;;;;;18.85;72.80;96655.63;5031445;28;20064;-70
2021/06/08 07:10:53;;;;;;;21.67;16.38;;;;;;;18.95;72.55;96657.78;5031575;28;20045;-70
2021/06/08 07:13:20;;;;;;;21.02;16.20;;;;;;;19.07;73.52;96656.03;5031410;28;20053;-70
2021/06/08 07:15:48;;;;;;;18.63;15.35;;;;;;;19.09;72.22;96654.50;5031926;28;20127;-70
2021/06/08 07:18:16;;;;;;;20.63;15.75;;;;;;;19.13;72.43;96655.38;5031619;28;20096;-70
2021/06/08 07:20:43;;;;;;;20.98;16.52;;;;;;;19.19;72.10;96651.13;5031610;28;20095;-70
2021/06/08 07:23:14;;;;;;;28.95;16.67;;;;;;;19.24;73.07;96652.78;5031345;28;20053;-70
2021/06/08 07:25:40;;;;;;;20.13;17.45;;;;;;;19.35;74.44;96651.00;5031684;28;20045;-70
2021/06/08 07:28:07;;;;;;;20.05;15.85;;;;;;;19.51;71.90;96653.66;5031755;28;20421;-70
2021/06/08 07:30:34;;;;;;;18.67;15.65;;;;;;;19.66;71.96;96652.75;5037359;28;20049;-70
2021/06/08 07:33:06;;;;;;;20.77;15.40;;;;;;;19.80;69.92;96657.72;5039063;28;20096;-71
2021/06/08 07:35:38;;;;;;;23.25;15.88;;;;;;;19.80;70.18;96650.22;5031844;28;20049;-70
2021/06/08 07:38:08;;;;;;;20.88;15.80;;;;;;;19.82;69.82;96652.63;5031419;28;20064;-70
2021/06/08 07:40:39;;;;;;;20.48;17.15;;;;;;;19.83;69.59;96654.22;5031660;28;20048;-70
2021/06/08 07:43:09;;;;;;;20.83;16.13;;;;;;;19.86;70.17;96655.44;5031116;28;20045;-69
2021/06/08 07:45:38;;;;;;;18.58;14.95;;;;;;;19.98;71.13;96653.25;5031959;28;20103;-70
2021/06/08 07:48:07;;;;;;;18.92;16.13;;;;;;;20.04;70.01;96646.25;5030995;28;20056;-70
2021/06/08 07:50:37;;;;;;;19.33;17.00;;;;;;;19.99;68.55;96645.75;5031250;28;20041;-70
2021/06/08 07:53:04;;;;;;;21.67;16.17;;;;;;;20.10;69.75;96643.16;5030695;28;20046;-71
2021/06/08 07:55:31;;;;;;;20.58;15.95;;;;;;;20.20;69.05;96646.09;5031719;28;20049;-70
2021/06/08 07:57:58;;;;;;;22.50;16.30;;;;;;;20.36;69.58;96643.16;5031674;28;20045;-71
2021/06/08 08:00:24;;;;;;;19.70;15.85;;;;;;;20.54;68.98;96644.22;5035618;28;20565;-70
2021/06/08 08:02:53;;;;;;;18.60;15.30;;;;;;;20.66;68.59;96640.41;5039950;28;20052;-71
2021/06/08 08:05:22;;;;;;;23.08;15.60;;;;;;;20.76;66.82;96645.25;5030801;28;20496;-71
2021/06/08 08:07:50;;;;;;;20.45;15.70;;;;;;;20.83;67.04;96641.81;5031175;28;20508;-70
2021/06/08 08:10:21;;;;;;;21.67;16.35;;;;;;;21.03;65.71;96645.16;5030329;28;20049;-71
2021/06/08 08:12:47;;;;;;;17.80;14.80;;;;;;;21.72;63.86;96647.47;5031455;28;20041;-71
2021/06/08 08:15:14;;;;;;;17.42;14.38;;;;;;;22.81;62.10;96651.28;5030769;28;20061;-71
2021/06/08 08:17:41;;;;;;;14.07;12.55;;;;;;;23.77;60.30;96648.00;5030952;28;20704;-71
2021/06/08 08:20:09;;;;;;;14.85;12.45;;;;;;;24.39;56.36;96655.91;5030205;28;20045;-71
2021/06/08 08:22:36;;;;;;;15.63;13.90;;;;;;;24.83;53.27;96647.00;5040454;28;20048;-71
2021/06/08 08:25:04;;;;;;;16.25;13.02;;;;;;;25.33;53.16;96654.38;5047371;28;20048;-71
2021/06/08 08:27:30;;;;;;;18.35;13.30;;;;;;;25.67;52.14;96649.72;5034764;28;20049;-71
2021/06/08 08:29:56;;;;;;;18.65;14.27;;;;;;;25.44;51.49;96652.28;5029641;28;20049;-70
2021/06/08 08:32:23;;;;;;;17.70;14.70;;;;;;;25.14;52.02;96653.66;5038030;28;20049;-70
2021/06/08 08:34:49;;;;;;;18.23;14.20;;;;;;;25.60;55.23;96647.00;5027650;28;20153;-70
2021/06/08 08:37:15;;;;;;;18.88;12.75;;;;;;;26.08;50.55;96651.81;5027367;28;20053;-70
2021/06/08 08:39:41;;;;;;;19.40;13.38;;;;;;;26.29;49.55;96657.19;5027594;28;20049;-70
2021/06/08 08:42:09;;;;;;;17.60;13.00;;;;;;;26.05;49.74;96652.66;5027233;28;20042;-70
2021/06/08 08:44:36;;;;;;;23.00;16.08;;;;;;;25.51;49.85;96646.66;5025843;28;20041;-70
2021/06/08 08:47:02;;;;;;;23.25;15.15;;;;;;;25.05;50.88;96649.69;5027356;28;20095;-71
2021/06/08 08:49:29;;;;;;;20.90;14.65;;;;;;;24.42;53.13;96655.09;5027276;28;20164;-70
2021/06/08 08:51:56;;;;;;;17.35;13.07;;;;;;;24.25;55.70;96655.91;5026983;28;20115;-70
2021/06/08 08:54:22;;;;;;;20.30;15.85;;;;;;;24.03;54.48;96653.16;5026846;28;20061;-70
2021/06/08 08:56:48;;;;;;;20.30;15.57;;;;;;;23.60;57.51;96652.34;5027711;28;20527;-70
2021/06/08 08:59:17;;;;;;;21.58;16.30;;;;;;;23.40;58.13;96652.69;5029267;28;20048;-70
2021/06/08 09:01:46;;;;;;;19.02;15.65;;;;;;;23.16;56.76;96645.09;5038736;28;20523;-70
2021/06/08 09:04:13;;;;;;;22.25;15.32;;;;;;;22.97;60.77;96640.69;5026853;28;20803;-70
2021/06/08 09:06:40;;;;;;;21.50;15.90;;;;;;;22.91;60.54;96640.25;5027490;28;20057;-70
2021/06/08 09:09:08;;;;;;;24.17;16.77;;;;;;;22.78;58.57;96643.78;5026768;28;20048;-71
2021/06/08 09:11:37;;;;;;;25.20;16.73;;;;;;;22.60;59.27;96638.94;5027341;28;20060;-70
2021/06/08 09:14:04;;;;;;;26.50;17.60;;;;;;;22.19;60.24;96638.31;5026405;28;20496;-70
2021/06/08 09:16:32;;;;;;;28.00;18.05;;;;;;;21.82;60.65;96644.78;5027362;28;20111;-70
2021/06/08 09:19:01;;;;;;;26.63;17.95;;;;;;;21.76;62.14;96640.75;5026580;28;20111;-70
2021/06/08 09:21:28;;;;;;;24.02;17.83;;;;;;;21.77;61.92;96641.53;5026849;28;20095;-70
2021/06/08 09:24:14;;;;;;;25.65;18.60;;;;;;;21.76;62.14;96645.50;5026402;28;20053;-70
2021/06/08 09:26:50;;;;;;;24.50;18.08;;;;;;;21.84;62.52;96647.16;5027315;28;20519;-71
2021/06/08 09:29:27;;;;;;;26.60;17.98;;;;;;;22.14;66.54;96638.69;5029352;28;20100;-71
2021/06/08 09:32:13;;;;;;;29.95;18.75;;;;;;;22.48;65.26;96636.50;5038576;28;20050;-70
2021/06/08 09:34:42;;;;;;;22.35;16.45;;;;;;;22.83;65.36;96640.63;5027223;28;20048;-71
2021/06/08 09:37:08;;;;;;;24.13;17.48;;;;;;;23.09;62.78;96637.56;5026708;28;20045;-71
2021/06/08 09:39:35;;;;;;;23.27;17.23;;;;;;;23.31;58.68;96646.72;5027574;28;20053;-70
2021/06/08 09:42:15;;;;;;;23.05;17.50;;;;;;;23.28;57.39;96643.94;5027119;28;20049;-70
2021/06/08 09:44:41;;;;;;;22.13;16.60;;;;;;;23.28;59.69;96630.81;5028459;28;20042;-71
2021/06/08 09:47:07;;;;;;;22.90;18.23;;;;;;;23.36;59.27;96646.34;5033136;28;20047;-70
2021/06/08 09:49:37;;;;;;;20.90;16.35;;;;;;;23.24;58.97;96641.16;5034130;28;20404;-71
2021/06/08 09:52:04;;;;;;;23.00;17.00;;;;;;;23.01;59.52;96641.47;5033214;28;20411;-71
2021/06/08 09:54:33;;;;;;;24.83;17.95;;;;;;;22.92;62.23;96638.31;5031703;28;20072;-71
2021/06/08 09:57:17;;;;;;;19.85;16.33;;;;;;;22.93;62.27;96645.44;5033995;28;20508;-71
2021/06/08 09:59:45;;;;;;;25.23;18.90;;;;;;;22.80;61.86;96649.72;5035165;28;20041;-70
2021/06/08 10:02:22;;;;;;;24.65;18.65;;;;;;;22.79;63.93;96643.38;5035277;28;20056;-71
2021/06/08 10:04:49;;;;;;;20.55;17.63;;;;;;;22.75;62.67;96633.44;5033576;28;20570;-70
2021/06/08 10:07:28;;;;;;;22.55;17.25;;;;;;;22.78;61.47;96638.22;5033033;28;20041;-71
2021/06/08 10:10:07;;;;;;;22.27;18.20;;;;;;;22.73;59.93;96641.38;5033616;28;20034;-71
2021/06/08 10:12:33;;;;;;;22.17;17.13;;;;;;;22.65;60.07;96630.22;5033448;28;20045;-71
2021/06/08 10:15:08;;;;;;;21.60;18.08;;;;;;;22.65;62.91;96634.97;5033570;28;20049;-71
2021/06/08 10:17:34;;;;;;;22.48;17.48;;;;;;;22.69;62.46;96635.78;5033508;28;20044;-71
2021/06/08 10:20:17;;;;;;;22.90;18.30;;;;;;;22.66;64.00;96636.59;5033397;28;20049;-71
2021/06/08 10:22:43;;;;;;;;;;;;;;;22.65;62.86;96630.22;5033602;28;20405;-71
2021/06/08 10:25:11;;;;;;;22.98;17.30;;;;;;;22.67;62.94;96633.41;5032491;28;19928;-71
2021/06/08 10:27:37;;;;;;;25.63;19.13;;;;;;;22.74;62.08;96634.63;5033302;28;20057;-71
2021/06/08 10:30:06;;;;;;;44.75;25.25;;;;;;;22.83;60.62;96638.63;5032937;28;20057;-71
2021/06/08 10:32:32;;;;;;;22.80;17.30;;;;;;;22.87;60.78;96631.13;5032789;28;20491;-71
2021/06/08 10:34:58;;;;;;;23.88;16.83;;;;;;;23.05;61.15;96636.75;5032570;28;20050;-71
2021/06/08 10:37:25;;;;;;;21.70;17.90;;;;;;;23.13;56.99;96632.81;5032519;28;20091;-71
2021/06/08 10:39:54;;;;;;;21.70;17.50;;;;;;;23.23;59.44;96627.66;5032817;28;20509;-71
2021/06/08 10:42:20;;;;;;;20.20;16.88;;;;;;;23.33;56.21;96624.88;5032711;28;20049;-71
2021/06/08 10:44:46;;;;;;;22.10;17.25;;;;;;;23.35;55.05;96632.84;5032725;28;20037;-71
2021/06/08 10:47:21;;;;;;;21.95;15.68;;;;;;;23.35;56.59;96622.53;5032505;28;20050;-71
2021/06/08 10:49:47;;;;;;;22.00;17.05;;;;;;;23.52;58.18;96626.50;5032552;28;20492;-71
2021/06/08 10:52:15;;;;;;;20.67;17.73;;;;;;;23.61;60.00;96618.56;5032181;28;20515;-71
2021/06/08 10:54:44;;;;;;;20.05;16.95;;;;;;;23.78;56.01;96617.00;5032538;28;20065;-71
2021/06/08 10:57:14;;;;;;;17.85;15.68;;;;;;;23.89;57.40;96622.56;5032317;28;20053;-71
2021/06/08 10:59:42;;;;;;;17.60;14.65;;;;;;;24.02;56.73;96620.19;5034619;28;20042;-72
2021/06/08 11:02:08;;;;;;;14.07;12.50;;;;;;;24.13;55.73;96616.19;5049251;28;20051;-71
2021/06/08 11:04:48;;;;;;;21.30;15.07;;;;;;;24.20;56.37;96616.16;5052086;28;20037;-71
2021/06/08 11:07:14;;;;;;;17.77;13.02;;;;;;;24.32;57.08;96603.78;5051908;28;20045;-71
2021/06/08 11:09:40;;;;;;;16.63;13.15;;;;;;;24.44;56.87;96614.53;5052244;28;20068;-72
2021/06/08 11:12:27;;;;;;;15.25;12.18;;;;;;;24.48;55.70;96606.16;5052177;28;20052;-71
2021/06/08 11:14:58;;;;;;;13.98;10.85;;;;;;;24.59;53.63;96608.91;5051932;28;20079;-71
2021/06/08 11:17:36;;;;;;;17.75;11.88;;;;;;;24.63;54.71;96610.47;5051835;28;20059;-71
2021/06/08 11:20:06;;;;;;;14.63;11.40;;;;;;;24.65;55.72;96608.09;5051761;28;20055;-71
2021/06/08 11:22:55;;;;;;;15.55;11.25;;;;;;;24.58;51.63;96596.19;5052032;28;20040;-70
2021/06/08 11:25:36;;;;;;;15.25;11.70;;;;;;;24.46;52.59;96605.78;5051600;28;20059;-69
2021/06/08 11:28:06;;;;;;;16.58;11.88;;;;;;;24.38;50.38;96599.47;5051227;28;20044;-71